Time;durP1;ratioP1;P1;durP2;ratioP2;P2;SDS_P1;SDS_P2;PMS_P1;PMS_P2;Temp;Humidity;BMP_temperature;BMP_pressure;BME280_temperature;BME280_humidity;BME280_pressure;Samples;Min_cycle;Max_cycle;Signal;HPM_P1;HPM_P2
2023/06/29 00:02:11;;;;;;;6.72;4.75;;;19.60;91.80;;;;;;5028679;28;20483;-68
2023/06/29 00:04:58;;;;;;;8.20;4.93;;;19.60;92.00;;;;;;5045514;28;20517;-68
2023/06/29 00:07:44;;;;;;;10.02;4.85;;;19.50;92.20;;;;;;5046834;28;20033;-68
2023/06/29 00:10:30;;;;;;;8.18;4.85;;;19.50;92.20;;;;;;5031962;28;20383;-68
2023/06/29 00:13:16;;;;;;;10.15;5.15;;;19.50;92.40;;;;;;5033016;28;20482;-68
2023/06/29 00:16:02;;;;;;;8.23;4.78;;;19.50;92.50;;;;;;5035974;28;20073;-68
2023/06/29 00:18:55;;;;;;;6.65;4.43;;;19.40;92.50;;;;;;5028154;28;20482;-68
2023/06/29 00:21:41;;;;;;;10.05;4.70;;;19.40;92.70;;;;;;5038218;28;20484;-69
2023/06/29 00:24:28;;;;;;;7.72;4.70;;;19.40;92.70;;;;;;5048656;28;20044;-69
2023/06/29 00:27:15;;;;;;;8.80;4.30;;;19.40;92.80;;;;;;5047730;28;20072;-69
2023/06/29 00:30:01;;;;;;;7.22;4.60;;;19.30;92.50;;;;;;5034246;28;20092;-69
2023/06/29 00:32:47;;;;;;;8.48;4.60;;;19.30;92.80;;;;;;5026788;28;20041;-69
2023/06/29 00:35:32;;;;;;;7.40;4.70;;;19.20;92.90;;;;;;5040282;28;20041;-69
2023/06/29 00:38:18;;;;;;;7.45;4.65;;;19.20;92.90;;;;;;5029804;28;20033;-69
2023/06/29 00:41:04;;;;;;;7.40;4.55;;;19.10;93.20;;;;;;5028347;28;20045;-69
2023/06/29 00:43:56;;;;;;;14.45;5.78;;;19.00;93.50;;;;;;5037085;28;20033;-70
2023/06/29 00:46:42;;;;;;;8.32;4.35;;;19.00;93.70;;;;;;5040224;28;20080;-69
2023/06/29 00:49:28;;;;;;;8.13;4.45;;;18.90;93.70;;;;;;5039931;28;20638;-70
2023/06/29 00:52:14;;;;;;;8.60;4.53;;;18.90;93.80;;;;;;5040297;28;20037;-70
2023/06/29 00:55:01;;;;;;;7.53;4.30;;;18.90;93.80;;;;;;5033174;28;20490;-70
2023/06/29 00:57:47;;;;;;;9.88;4.70;;;18.90;93.90;;;;;;5031656;28;20609;-70
2023/06/29 01:00:33;;;;;;;6.97;4.10;;;18.80;94.10;;;;;;5050450;28;20447;-70
2023/06/29 01:03:20;;;;;;;8.35;4.32;;;18.80;94.30;;;;;;5039304;28;20032;-70
2023/06/29 01:06:12;;;;;;;8.52;4.65;;;18.80;94.30;;;;;;5040733;28;20033;-69
2023/06/29 01:09:05;;;;;;;8.10;4.97;;;18.80;94.60;;;;;;5040332;28;20154;-69
2023/06/29 01:11:52;;;;;;;6.97;4.90;;;18.80;94.70;;;;;;5031189;28;20059;-68
2023/06/29 01:14:40;;;;;;;7.43;4.28;;;18.70;94.70;;;;;;5046594;28;20094;-68
2023/06/29 01:17:30;;;;;;;8.10;4.47;;;18.70;94.90;;;;;;5051488;28;20078;-68
2023/06/29 01:20:18;;;;;;;7.00;4.20;;;18.70;94.90;;;;;;5048187;28;20057;-69
2023/06/29 01:23:11;;;;;;;8.75;4.43;;;18.60;95.10;;;;;;5046990;28;20575;-68
2023/06/29 01:25:57;;;;;;;8.05;4.03;;;18.60;95.30;;;;;;5037204;28;20098;-68
2023/06/29 01:28:43;;;;;;;6.57;4.80;;;18.60;95.20;;;;;;5043721;28;20049;-69
2023/06/29 01:31:29;;;;;;;9.13;4.28;;;18.60;95.10;;;;;;5031414;28;20112;-68
2023/06/29 01:34:15;;;;;;;6.15;3.80;;;18.60;95.00;;;;;;5037463;28;20066;-68
2023/06/29 01:37:11;;;;;;;7.03;4.28;;;18.60;95.20;;;;;;5032852;28;20029;-68
2023/06/29 01:40:05;;;;;;;7.95;4.43;;;18.50;95.40;;;;;;5033175;28;20044;-68
2023/06/29 01:42:54;;;;;;;7.97;4.10;;;18.50;95.50;;;;;;5032740;28;20033;-68
2023/06/29 01:45:41;;;;;;;4.38;3.33;;;18.50;95.40;;;;;;5050523;28;20354;-68
2023/06/29 01:48:27;;;;;;;7.40;4.72;;;18.50;95.60;;;;;;5042117;28;20049;-68
2023/06/29 01:51:13;;;;;;;8.77;3.90;;;18.50;95.70;;;;;;5032752;28;20179;-68
2023/06/29 01:53:59;;;;;;;6.95;4.25;;;18.50;95.80;;;;;;5038124;28;20123;-68
2023/06/29 01:56:45;;;;;;;5.93;3.80;;;18.50;95.90;;;;;;5051157;28;20033;-68
2023/06/29 01:59:31;;;;;;;8.30;5.05;;;18.50;96.00;;;;;;5048381;28;20037;-68
2023/06/29 02:02:17;;;;;;;6.93;3.90;;;18.40;96.10;;;;;;5050468;28;20037;-68
2023/06/29 02:05:03;;;;;;;6.60;4.63;;;18.40;96.20;;;;;;5031199;28;20501;-68
2023/06/29 02:07:50;;;;;;;5.78;3.80;;;18.30;96.10;;;;;;5043890;28;20032;-68
2023/06/29 02:10:35;;;;;;;5.65;3.90;;;18.30;96.20;;;;;;5039090;28;20108;-68
2023/06/29 02:13:21;;;;;;;7.22;4.53;;;18.30;96.40;;;;;;5046843;28;20128;-68
2023/06/29 02:16:07;;;;;;;6.07;4.47;;;18.30;96.50;;;;;;5030856;28;20042;-68
2023/06/29 02:18:53;;;;;;;6.90;4.97;;;18.30;96.80;;;;;;5036296;28;20134;-68
2023/06/29 02:21:39;;;;;;;7.10;4.47;;;18.20;96.70;;;;;;5048667;28;20029;-68
2023/06/29 02:24:25;;;;;;;7.80;4.88;;;18.20;96.70;;;;;;5032350;28;20044;-68
2023/06/29 02:27:11;;;;;;;8.82;4.72;;;18.20;96.80;;;;;;5039730;28;20028;-68
2023/06/29 02:29:57;;;;;;;6.00;4.40;;;18.10;97.00;;;;;;5049591;28;20045;-68
2023/06/29 02:32:43;;;;;;;6.97;4.50;;;18.10;97.30;;;;;;5051150;28;20472;-68
2023/06/29 02:35:29;;;;;;;7.30;4.85;;;18.00;97.40;;;;;;5029053;28;20769;-68
2023/06/29 02:38:15;;;;;;;6.82;4.43;;;18.00;97.90;;;;;;5042764;28;20919;-69
2023/06/29 02:41:01;;;;;;;8.30;5.25;;;18.00;97.90;;;;;;5030383;28;20072;-68
2023/06/29 02:43:47;;;;;;;6.72;4.97;;;18.00;98.10;;;;;;5030302;28;20033;-68
2023/06/29 02:46:33;;;;;;;10.98;5.20;;;18.00;98.20;;;;;;5042512;28;20044;-68
2023/06/29 02:49:18;;;;;;;10.50;6.28;;;18.00;98.40;;;;;;5038909;28;20041;-68
2023/06/29 02:52:05;;;;;;;8.15;4.95;;;18.00;98.40;;;;;;5030047;28;20041;-68
2023/06/29 02:54:51;;;;;;;9.52;5.00;;;18.00;98.60;;;;;;5034510;28;20029;-68
2023/06/29 02:57:37;;;;;;;7.35;4.90;;;18.00;98.70;;;;;;5039694;28;20029;-68
2023/06/29 03:00:23;;;;;;;7.97;5.10;;;17.90;98.90;;;;;;5031139;28;20072;-68
2023/06/29 03:03:08;;;;;;;6.43;4.32;;;17.90;99.10;;;;;;5030446;28;20479;-68
2023/06/29 03:05:54;;;;;;;7.47;4.78;;;17.90;99.20;;;;;;5031683;28;20033;-68
2023/06/29 03:08:40;;;;;;;6.18;4.88;;;18.00;99.30;;;;;;5042588;28;20037;-68
2023/06/29 03:11:26;;;;;;;9.32;4.95;;;18.00;99.40;;;;;;5029939;28;20108;-68
2023/06/29 03:14:12;;;;;;;7.43;4.93;;;18.10;99.40;;;;;;5044182;28;20040;-69
2023/06/29 03:16:58;;;;;;;7.10;4.05;;;18.10;99.40;;;;;;5035591;28;20035;-68
2023/06/29 03:19:45;;;;;;;9.60;5.32;;;18.10;99.40;;;;;;5029518;28;20403;-69
2023/06/29 03:22:31;;;;;;;7.90;4.78;;;18.20;99.40;;;;;;5030882;28;20470;-69
2023/06/29 03:25:17;;;;;;;9.48;4.03;;;18.20;99.40;;;;;;5029741;28;20037;-67
2023/06/29 03:28:03;;;;;;;6.25;4.30;;;18.20;99.40;;;;;;5040444;28;20028;-67
2023/06/29 03:30:49;;;;;;;7.10;3.90;;;18.30;99.40;;;;;;5050057;28;20056;-67
2023/06/29 03:33:35;;;;;;;7.63;3.85;;;18.30;99.40;;;;;;5047937;28;20039;-67
2023/06/29 03:36:21;;;;;;;9.40;4.10;;;18.30;99.50;;;;;;5045164;28;20453;-67
2023/06/29 03:39:06;;;;;;;6.75;3.75;;;18.30;99.40;;;;;;5040530;28;20099;-67
2023/06/29 03:41:52;;;;;;;7.47;4.13;;;18.30;99.40;;;;;;5045369;28;20071;-68
2023/06/29 03:44:39;;;;;;;4.63;3.30;;;18.40;99.40;;;;;;5034450;28;20052;-67
2023/06/29 03:47:25;;;;;;;7.18;4.63;;;18.40;99.40;;;;;;5034306;28;20033;-67
2023/06/29 03:50:11;;;;;;;6.13;4.15;;;18.40;99.30;;;;;;5038618;28;20159;-67
2023/06/29 03:52:57;;;;;;;5.70;3.60;;;18.50;99.30;;;;;;5030318;28;20026;-68
2023/06/29 03:55:43;;;;;;;7.78;3.50;;;18.50;99.30;;;;;;5049019;28;20029;-68
2023/06/29 03:58:29;;;;;;;5.05;3.83;;;18.50;99.30;;;;;;5042876;28;20045;-68
2023/06/29 04:01:15;;;;;;;6.65;3.97;;;18.50;99.30;;;;;;5029099;28;20080;-67
2023/06/29 04:04:00;;;;;;;5.88;3.92;;;18.60;99.30;;;;;;5038619;28;20032;-68
2023/06/29 04:06:46;;;;;;;6.38;4.05;;;18.60;99.30;;;;;;5041763;28;20036;-68
2023/06/29 04:09:32;;;;;;;5.60;3.72;;;18.70;99.30;;;;;;5041780;28;20087;-67
2023/06/29 04:12:18;;;;;;;5.78;3.75;;;18.70;99.40;;;;;;5041618;28;20037;-68
2023/06/29 04:15:05;;;;;;;5.63;3.70;;;18.80;99.40;;;;;;5043056;28;20048;-69
2023/06/29 04:17:50;;;;;;;6.57;3.88;;;18.90;99.50;;;;;;5035983;28;20048;-69
2023/06/29 04:20:37;;;;;;;5.97;3.95;;;19.00;99.50;;;;;;5044667;28;20049;-70
2023/06/29 04:23:23;;;;;;;4.68;3.20;;;19.00;99.40;;;;;;5042348;28;20036;-71
2023/06/29 04:26:09;;;;;;;6.60;4.28;;;19.20;99.30;;;;;;5034191;28;20068;-71
2023/06/29 04:29:03;;;;;;;6.20;3.58;;;19.20;99.20;;;;;;5040043;28;20041;-68
2023/06/29 04:31:49;;;;;;;7.78;3.65;;;19.30;99.20;;;;;;5032737;28;20044;-69
2023/06/29 04:34:35;;;;;;;9.15;4.13;;;19.40;99.20;;;;;;5031943;28;20036;-70
2023/06/29 04:37:21;;;;;;;4.75;3.00;;;19.40;99.10;;;;;;5048209;28;20037;-70
2023/06/29 04:40:14;;;;;;;5.43;3.47;;;19.50;99.00;;;;;;5044463;28;20122;-69
2023/06/29 04:43:00;;;;;;;5.35;3.47;;;19.50;98.90;;;;;;5044530;28;20108;-70
2023/06/29 04:45:46;;;;;;;6.55;3.42;;;19.60;98.80;;;;;;5044042;28;20108;-70
2023/06/29 04:48:37;;;;;;;6.35;3.38;;;19.70;98.90;;;;;;5046300;28;20045;-70
2023/06/29 04:51:25;;;;;;;6.18;3.47;;;19.70;98.50;;;;;;5051395;28;20036;-69
2023/06/29 04:54:11;;;;;;;5.50;3.25;;;19.70;98.40;;;;;;5040084;28;20116;-70
2023/06/29 04:56:57;;;;;;;6.07;3.05;;;19.80;98.40;;;;;;5043487;28;20478;-69
2023/06/29 04:59:43;;;;;;;5.57;3.42;;;19.80;98.30;;;;;;5044317;28;20204;-69
2023/06/29 05:02:29;;;;;;;6.47;3.70;;;19.80;98.20;;;;;;5044598;28;20091;-70
2023/06/29 05:05:15;;;;;;;4.72;3.45;;;19.90;98.20;;;;;;5032572;28;20037;-77
2023/06/29 05:08:01;;;;;;;6.60;3.88;;;19.80;98.00;;;;;;5047859;28;20071;-76
2023/06/29 05:10:47;;;;;;;8.00;3.75;;;19.90;98.00;;;;;;5030773;28;20597;-74
2023/06/29 05:13:35;;;;;;;3.92;2.78;;;19.90;97.90;;;;;;5034087;28;20390;-81
2023/06/29 05:16:21;;;;;;;5.95;3.53;;;20.00;97.90;;;;;;5031406;28;20465;-84
2023/06/29 05:19:07;;;;;;;4.18;3.25;;;20.00;97.70;;;;;;5038830;28;20052;-82
2023/06/29 05:21:53;;;;;;;8.38;3.50;;;20.10;97.60;;;;;;5051507;28;20036;-82
2023/06/29 05:24:40;;;;;;;7.35;3.50;;;20.20;97.50;;;;;;5036261;28;20038;-81
2023/06/29 05:27:26;;;;;;;6.38;3.40;;;20.30;97.60;;;;;;5039020;28;20037;-82
2023/06/29 05:30:13;;;;;;;4.75;3.47;;;20.40;97.50;;;;;;5040244;28;20045;-82
2023/06/29 05:32:58;;;;;;;7.57;3.17;;;20.50;97.60;;;;;;5039297;28;20068;-82
2023/06/29 05:35:44;;;;;;;5.35;3.00;;;20.60;97.10;;;;;;5035243;28;20045;-82
2023/06/29 05:38:30;;;;;;;3.97;2.80;;;20.70;96.90;;;;;;5044512;28;20468;-84
2023/06/29 05:41:16;;;;;;;4.13;2.80;;;20.80;96.90;;;;;;5042344;28;20392;-84
2023/06/29 05:44:02;;;;;;;4.22;2.60;;;21.00;96.70;;;;;;5038092;28;20043;-84
2023/06/29 05:46:48;;;;;;;6.05;3.33;;;21.10;96.70;;;;;;5040698;28;20033;-84
2023/06/29 05:49:34;;;;;;;8.35;3.28;;;21.30;96.50;;;;;;5039526;28;20060;-84
2023/06/29 05:52:21;;;;;;;7.57;2.90;;;21.40;96.40;;;;;;5033319;28;20423;-85
2023/06/29 05:55:08;;;;;;;7.47;3.30;;;21.60;96.30;;;;;;5037240;28;20065;-84
2023/06/29 05:57:54;;;;;;;3.72;2.83;;;21.70;96.10;;;;;;5048715;28;20075;-84
2023/06/29 06:00:39;;;;;;;5.05;3.38;;;21.90;96.00;;;;;;5045986;28;20063;-84
2023/06/29 06:03:25;;;;;;;7.97;3.40;;;22.00;96.00;;;;;;5043360;28;20048;-75
2023/06/29 06:06:11;;;;;;;7.43;2.67;;;22.10;95.50;;;;;;5047256;28;20501;-88
2023/06/29 06:08:58;;;;;;;6.47;2.90;;;22.20;95.30;;;;;;5045670;28;20050;-87
2023/06/29 06:11:44;;;;;;;3.95;2.80;;;22.20;95.00;;;;;;5050549;28;20155;-80
2023/06/29 06:14:30;;;;;;;7.35;3.05;;;22.30;95.00;;;;;;5035679;28;20099;-76
2023/06/29 06:17:16;;;;;;;5.47;2.97;;;22.30;94.80;;;;;;5031463;28;20037;-76
2023/06/29 06:20:04;;;;;;;4.35;2.20;;;22.40;94.70;;;;;;5034072;28;20056;-78
2023/06/29 06:22:50;;;;;;;7.80;3.15;;;22.40;94.30;;;;;;5046730;28;20025;-71
2023/06/29 06:25:36;;;;;;;4.13;2.17;;;22.50;94.30;;;;;;5042734;28;20064;-83
2023/06/29 06:28:24;;;;;;;4.95;2.80;;;22.60;94.30;;;;;;5039509;28;20046;-84
2023/06/29 06:31:12;;;;;;;5.68;2.70;;;22.70;94.00;;;;;;5039748;28;20112;-83
2023/06/29 06:33:58;;;;;;;9.85;3.15;;;22.70;93.80;;;;;;5036676;28;20024;-83
2023/06/29 06:36:46;;;;;;;8.93;3.42;;;22.80;94.20;;;;;;5034417;28;20112;-83
2023/06/29 06:39:32;;;;;;;4.35;2.50;;;22.80;94.00;;;;;;5043810;28;20131;-82
2023/06/29 06:42:18;;;;;;;4.38;2.10;;;22.90;93.60;;;;;;5050688;28;20089;-83
2023/06/29 06:45:05;;;;;;;3.00;2.08;;;22.90;93.20;;;;;;5045973;28;20116;-84
2023/06/29 06:47:51;;;;;;;3.45;2.17;;;22.90;92.80;;;;;;5028925;28;20482;-83
2023/06/29 06:50:37;;;;;;;4.38;2.08;;;22.90;92.70;;;;;;5049707;28;20060;-81
2023/06/29 06:53:23;;;;;;;4.75;2.58;;;22.90;92.60;;;;;;5040425;28;20094;-82
2023/06/29 06:56:09;;;;;;;4.32;2.03;;;23.00;92.40;;;;;;5046668;28;20378;-82
2023/06/29 06:58:55;;;;;;;7.78;2.67;;;23.10;92.10;;;;;;5039589;28;20037;-83
2023/06/29 07:01:41;;;;;;;3.33;2.00;;;23.20;92.30;;;;;;5032064;28;20040;-84
2023/06/29 07:04:27;;;;;;;4.45;1.80;;;23.40;91.90;;;;;;5034755;28;20064;-75
2023/06/29 07:07:13;;;;;;;4.93;2.08;;;23.40;91.50;;;;;;5037596;28;20060;-74
2023/06/29 07:09:59;;;;;;;3.58;2.10;;;23.60;91.50;;;;;;5045361;28;20099;-75
2023/06/29 07:12:45;;;;;;;3.17;2.20;;;23.70;91.20;;;;;;5028282;28;20127;-75
2023/06/29 07:15:31;;;;;;;11.13;2.42;;;24.00;90.90;;;;;;5033847;28;20174;-75
2023/06/29 07:18:17;;;;;;;4.10;2.17;;;24.10;90.80;;;;;;5047457;28;20055;-79
2023/06/29 07:21:03;;;;;;;5.50;2.90;;;24.30;90.80;;;;;;5048880;28;20045;-80
2023/06/29 07:23:49;;;;;;;5.53;2.30;;;24.40;90.50;;;;;;5046922;28;20036;-80
2023/06/29 07:26:36;;;;;;;8.25;2.78;;;24.50;90.40;;;;;;5041149;28;20029;-79
2023/06/29 07:29:22;;;;;;;4.18;2.20;;;24.50;90.20;;;;;;5039323;28;20049;-79
2023/06/29 07:32:09;;;;;;;6.72;2.80;;;24.50;90.30;;;;;;5048445;28;20660;-79
2023/06/29 07:34:55;;;;;;;6.50;2.30;;;24.60;90.20;;;;;;5041285;28;20473;-79
2023/06/29 07:37:41;;;;;;;2.42;2.03;;;24.60;90.30;;;;;;5048134;28;20061;-77
2023/06/29 07:40:27;;;;;;;6.15;3.00;;;24.70;90.20;;;;;;5031157;28;20394;-75
2023/06/29 07:43:13;;;;;;;8.45;2.75;;;24.80;90.10;;;;;;5031559;28;20025;-76
2023/06/29 07:45:59;;;;;;;7.68;2.70;;;24.80;90.20;;;;;;5031740;28;20048;-75
2023/06/29 07:48:46;;;;;;;3.88;2.17;;;24.90;89.70;;;;;;5026822;28;20068;-76
2023/06/29 07:51:33;;;;;;;7.50;2.72;;;24.90;89.70;;;;;;5042278;28;20047;-76
2023/06/29 07:54:19;;;;;;;4.32;2.08;;;24.90;89.50;;;;;;5034203;28;20033;-76
2023/06/29 07:57:05;;;;;;;3.78;2.60;;;24.90;89.50;;;;;;5028838;28;20099;-75
2023/06/29 07:59:51;;;;;;;6.55;2.20;;;24.90;89.20;;;;;;5041382;28;20037;-74
2023/06/29 08:02:37;;;;;;;3.85;2.35;;;25.00;89.60;;;;;;5032210;28;20274;-75
2023/06/29 08:05:23;;;;;;;26.60;3.83;;;25.00;89.30;;;;;;5034994;28;20037;-75
2023/06/29 08:08:09;;;;;;;13.25;3.20;;;25.00;88.80;;;;;;5031191;28;20029;-76
2023/06/29 08:10:56;;;;;;;14.32;2.95;;;25.00;88.80;;;;;;5034033;28;20438;-75
2023/06/29 08:13:42;;;;;;;8.68;2.58;;;25.00;88.80;;;;;;5032050;28;20037;-75
2023/06/29 08:16:28;;;;;;;16.77;4.07;;;25.00;87.90;;;;;;5041366;28;20099;-76
2023/06/29 08:19:15;;;;;;;26.48;4.93;;;25.10;87.60;;;;;;5029868;28;20122;-75
2023/06/29 08:22:01;;;;;;;19.63;5.07;;;25.10;87.20;;;;;;5031057;28;20124;-74
2023/06/29 08:24:47;;;;;;;22.38;4.32;;;25.20;87.40;;;;;;5036076;28;20037;-74
2023/06/29 08:27:32;;;;;;;11.10;3.55;;;25.20;87.70;;;;;;5048707;28;20037;-74
2023/06/29 08:30:18;;;;;;;43.70;8.38;;;25.30;87.30;;;;;;5040149;28;20132;-75
2023/06/29 08:33:04;;;;;;;13.57;3.38;;;25.30;87.20;;;;;;5029060;28;20056;-75
2023/06/29 08:35:51;;;;;;;12.23;3.17;;;25.40;86.80;;;;;;5045220;28;20044;-74
2023/06/29 08:38:37;;;;;;;7.55;2.30;;;25.40;85.70;;;;;;5046235;28;20094;-75
2023/06/29 08:41:23;;;;;;;6.28;2.40;;;25.40;85.60;;;;;;5028393;28;20449;-74
2023/06/29 08:44:09;;;;;;;12.50;4.45;;;25.50;85.20;;;;;;5028660;28;20033;-74
2023/06/29 08:46:59;;;;;;;7.47;3.00;;;25.50;85.50;;;;;;5033252;28;20068;-73
2023/06/29 08:49:46;;;;;;;17.15;3.17;;;25.50;84.80;;;;;;5045347;28;20508;-74
2023/06/29 08:52:33;;;;;;;4.95;2.70;;;25.50;84.80;;;;;;5037005;28;20033;-75
2023/06/29 08:55:20;;;;;;;5.28;3.00;;;25.50;85.20;;;;;;5026052;28;20037;-76
2023/06/29 08:58:06;;;;;;;6.13;2.58;;;25.50;85.50;;;;;;5033939;28;20115;-74
2023/06/29 09:00:53;;;;;;;5.93;2.50;;;25.50;85.80;;;;;;5029595;28;20096;-74
2023/06/29 09:03:40;;;;;;;3.97;2.45;;;25.50;85.40;;;;;;5036498;28;20026;-74
2023/06/29 09:06:27;;;;;;;5.43;2.25;;;25.50;85.10;;;;;;5032870;28;20056;-74
2023/06/29 09:09:14;;;;;;;3.20;1.77;;;25.50;85.00;;;;;;5046670;28;20037;-74
2023/06/29 09:12:00;;;;;;;4.20;1.73;;;25.50;84.30;;;;;;5051887;28;20040;-76
2023/06/29 09:14:47;;;;;;;3.67;1.70;;;25.50;84.70;;;;;;5053712;28;20056;-74
2023/06/29 09:17:34;;;;;;;8.20;2.42;;;25.60;84.20;;;;;;5047891;28;20029;-75
2023/06/29 09:20:20;;;;;;;11.68;1.92;;;25.60;84.00;;;;;;5045941;28;20040;-52
2023/06/29 09:23:06;;;;;;;8.02;2.00;;;25.60;83.20;;;;;;5048263;28;20036;-50
2023/06/29 09:25:55;;;;;;;3.45;1.60;;;25.70;82.50;;;;;;5033690;28;20380;-75
2023/06/29 09:28:45;;;;;;;3.63;1.52;;;25.80;82.60;;;;;;5044573;28;20137;-76
2023/06/29 09:31:35;;;;;;;4.00;1.75;;;25.70;82.50;;;;;;5050503;28;20040;-70
2023/06/29 09:34:25;;;;;;;3.05;1.95;;;25.70;82.80;;;;;;5045257;28;20029;-73
2023/06/29 09:37:13;;;;;;;2.75;1.80;;;25.70;83.70;;;;;;5048163;28;20115;-73
2023/06/29 09:40:00;;;;;;;5.75;1.90;;;25.80;83.00;;;;;;5043033;28;20036;-73
2023/06/29 09:42:46;;;;;;;4.75;2.15;;;25.80;82.80;;;;;;5039656;28;20029;-72
2023/06/29 09:45:33;;;;;;;5.38;2.00;;;25.90;83.10;;;;;;5046946;28;20029;-73
2023/06/29 09:48:23;;;;;;;2.33;1.70;;;26.00;82.70;;;;;;5038324;28;20032;-74
2023/06/29 09:51:09;;;;;;;3.30;2.33;;;26.00;82.90;;;;;;5039647;28;20052;-74
2023/06/29 09:53:55;;;;;;;4.68;2.40;;;26.20;82.90;;;;;;5035429;28;20044;-74
2023/06/29 09:56:43;;;;;;;2.88;2.10;;;26.30;82.80;;;;;;5049671;28;20481;-74
2023/06/29 09:59:34;;;;;;;4.97;2.63;;;26.40;83.00;;;;;;5034955;28;20470;-74
2023/06/29 10:02:20;;;;;;;6.40;2.35;;;26.40;83.00;;;;;;5038863;28;20149;-74
2023/06/29 10:05:10;;;;;;;3.60;2.10;;;26.50;82.30;;;;;;5030718;28;20033;-74
2023/06/29 10:07:57;;;;;;;4.70;2.30;;;26.60;82.20;;;;;;5045975;28;20033;-74
2023/06/29 10:10:45;;;;;;;3.30;2.00;;;26.70;82.00;;;;;;5042812;28;20048;-74
2023/06/29 10:13:43;;;;;;;7.18;2.03;;;26.70;81.70;;;;;;5041551;28;20041;-74
2023/06/29 10:16:36;;;;;;;4.32;2.22;;;26.80;81.40;;;;;;5037740;28;20126;-73
2023/06/29 10:19:23;;;;;;;5.32;1.75;;;26.90;81.70;;;;;;5037655;28;20517;-74
2023/06/29 10:22:13;;;;;;;12.25;3.35;;;27.00;81.10;;;;;;5029890;28;20034;-73
2023/06/29 10:25:04;;;;;;;4.50;2.17;;;27.10;80.60;;;;;;5030396;28;20041;-74
2023/06/29 10:27:53;;;;;;;4.72;1.67;;;27.10;79.80;;;;;;5030511;28;20034;-73
2023/06/29 10:30:46;;;;;;;3.72;1.90;;;27.20;79.30;;;;;;5028914;28;20072;-73
2023/06/29 10:33:45;;;;;;;5.00;2.10;;;27.20;79.20;;;;;;5036576;28;20037;-73
2023/06/29 10:36:48;;;;;;;3.50;1.95;;;27.30;79.20;;;;;;5029598;28;20034;-73
2023/06/29 10:39:44;;;;;;;4.13;1.95;;;27.40;79.00;;;;;;5029827;28;20045;-73
2023/06/29 10:42:39;;;;;;;2.42;1.70;;;27.40;79.00;;;;;;5036459;28;20047;-73
2023/06/29 10:45:25;;;;;;;3.28;1.70;;;27.40;79.10;;;;;;5036176;28;20175;-73
2023/06/29 10:48:15;;;;;;;2.30;1.70;;;27.40;79.10;;;;;;5037005;28;20044;-73
2023/06/29 10:51:06;;;;;;;3.78;2.00;;;27.30;79.60;;;;;;5042391;28;20043;-73
2023/06/29 10:53:52;;;;;;;4.47;1.95;;;27.20;77.60;;;;;;5029268;28;20504;-73
2023/06/29 10:56:38;;;;;;;4.43;2.20;;;27.20;76.70;;;;;;5031722;28;20048;-73
2023/06/29 10:59:25;;;;;;;3.70;2.10;;;27.20;77.80;;;;;;5035199;28;20025;-72
2023/06/29 11:02:11;;;;;;;5.45;2.63;;;27.20;77.20;;;;;;5028850;28;20147;-73
2023/06/29 11:04:57;;;;;;;4.20;2.17;;;27.20;77.10;;;;;;5038407;28;20034;-72
2023/06/29 11:07:44;;;;;;;2.67;2.17;;;27.20;76.90;;;;;;5036892;28;20037;-72
2023/06/29 11:10:30;;;;;;;4.72;2.08;;;27.20;77.80;;;;;;5028695;28;20045;-72
2023/06/29 11:13:18;;;;;;;4.88;2.45;;;27.40;78.40;;;;;;5029689;28;20037;-72
2023/06/29 11:16:04;;;;;;;3.63;2.25;;;27.50;78.00;;;;;;5028253;28;20038;-72
2023/06/29 11:18:50;;;;;;;3.05;2.15;;;27.60;78.00;;;;;;5029682;28;20061;-72
2023/06/29 11:21:36;;;;;;;2.80;2.17;;;27.60;77.80;;;;;;5028129;28;20033;-72
2023/06/29 11:24:22;;;;;;;7.25;2.42;;;27.80;77.60;;;;;;5027708;28;20025;-72
2023/06/29 11:27:08;;;;;;;2.47;1.90;;;27.90;77.50;;;;;;5029248;28;20044;-72
2023/06/29 11:29:58;;;;;;;4.82;2.33;;;27.90;77.00;;;;;;5029420;28;20052;-72
2023/06/29 11:32:50;;;;;;;2.92;1.92;;;28.00;76.30;;;;;;5035589;28;20475;-71
2023/06/29 11:35:36;;;;;;;2.90;2.20;;;28.10;76.20;;;;;;5027493;28;20029;-72
2023/06/29 11:38:22;;;;;;;5.50;2.10;;;28.20;76.50;;;;;;5029851;28;20037;-72
2023/06/29 11:41:08;;;;;;;3.25;2.42;;;28.20;75.90;;;;;;5041147;28;20032;-72
2023/06/29 11:43:54;;;;;;;5.38;2.13;;;28.20;76.50;;;;;;5032634;28;20336;-72
2023/06/29 11:46:43;;;;;;;5.13;2.30;;;28.20;76.30;;;;;;5034993;28;20028;-72
2023/06/29 11:49:29;;;;;;;4.78;1.90;;;28.20;76.10;;;;;;5032732;28;20041;-72
2023/06/29 11:52:15;;;;;;;4.22;2.22;;;28.20;76.20;;;;;;5029706;28;20044;-72
2023/06/29 11:55:03;;;;;;;3.10;2.03;;;28.20;76.10;;;;;;5030959;28;20122;-72
2023/06/29 11:57:52;;;;;;;5.05;2.47;;;28.20;76.30;;;;;;5034429;28;20454;-71
2023/06/29 12:00:37;;;;;;;4.55;2.45;;;28.20;75.40;;;;;;5036604;28;20497;-72
2023/06/29 12:03:25;;;;;;;2.30;1.90;;;28.20;74.00;;;;;;5030098;28;20032;-71
2023/06/29 12:06:12;;;;;;;2.55;1.85;;;28.10;73.70;;;;;;5028450;28;20152;-72
2023/06/29 12:08:58;;;;;;;5.53;2.17;;;28.20;74.60;;;;;;5038086;28;20484;-71
2023/06/29 12:11:43;;;;;;;4.45;2.60;;;28.30;74.80;;;;;;5046345;28;20033;-72
2023/06/29 12:14:32;;;;;;;4.25;2.67;;;28.30;74.60;;;;;;5031550;28;20179;-72
2023/06/29 12:17:22;;;;;;;2.75;1.95;;;28.30;74.30;;;;;;5028276;28;20130;-72
2023/06/29 12:20:16;;;;;;;4.03;2.40;;;28.40;74.10;;;;;;5039281;28;20085;-72
2023/06/29 12:23:03;;;;;;;4.17;2.40;;;28.40;73.90;;;;;;5028611;28;20098;-72
2023/06/29 12:25:52;;;;;;;3.40;2.28;;;28.40;73.20;;;;;;5028661;28;20280;-72
2023/06/29 12:28:39;;;;;;;2.95;2.00;;;28.30;74.20;;;;;;5027112;28;20052;-72
2023/06/29 12:31:28;;;;;;;3.63;2.00;;;28.20;74.30;;;;;;5031199;28;20440;-72
2023/06/29 12:34:14;;;;;;;4.80;3.38;;;28.20;74.70;;;;;;5044363;28;20459;-72
2023/06/29 12:37:02;;;;;;;3.70;2.55;;;28.20;73.90;;;;;;5028142;28;20037;-72
2023/06/29 12:39:48;;;;;;;3.78;2.30;;;28.20;74.50;;;;;;5039748;28;20033;-72
2023/06/29 12:42:34;;;;;;;3.15;2.45;;;28.20;74.60;;;;;;5039671;28;20029;-72
2023/06/29 12:45:21;;;;;;;3.72;2.20;;;28.20;74.60;;;;;;5045920;28;20025;-72
2023/06/29 12:48:06;;;;;;;5.05;2.45;;;28.30;74.20;;;;;;5040265;28;20087;-71
2023/06/29 12:50:59;;;;;;;4.15;2.90;;;28.30;74.50;;;;;;5032058;28;20038;-71
2023/06/29 12:53:45;;;;;;;3.15;2.00;;;28.40;74.60;;;;;;5034291;28;21594;-72
2023/06/29 12:56:31;;;;;;;6.10;2.42;;;28.40;73.90;;;;;;5031925;28;20080;-72
2023/06/29 12:59:17;;;;;;;4.63;2.17;;;28.40;73.70;;;;;;5048105;28;20079;-71
2023/06/29 13:02:05;;;;;;;5.13;2.67;;;28.50;73.50;;;;;;5032219;28;20033;-72
2023/06/29 13:04:51;;;;;;;6.97;3.38;;;28.50;73.50;;;;;;5041526;28;20033;-72
2023/06/29 13:07:37;;;;;;;4.35;2.50;;;28.40;73.80;;;;;;5031391;28;20029;-72
2023/06/29 13:10:23;;;;;;;3.45;2.13;;;28.50;73.50;;;;;;5040166;28;20045;-72
2023/06/29 13:13:09;;;;;;;3.40;2.15;;;28.50;73.50;;;;;;5033050;28;20033;-72
2023/06/29 13:15:55;;;;;;;4.30;2.40;;;28.60;73.90;;;;;;5036394;28;20479;-72
2023/06/29 13:18:41;;;;;;;4.60;2.45;;;28.50;74.00;;;;;;5033126;28;20478;-72
2023/06/29 13:21:27;;;;;;;4.90;2.60;;;28.50;74.60;;;;;;5032195;28;20044;-72
2023/06/29 13:24:14;;;;;;;4.60;2.58;;;28.50;74.00;;;;;;5047201;28;20394;-72
2023/06/29 13:27:03;;;;;;;5.80;3.25;;;28.50;73.80;;;;;;5047066;28;20060;-72
2023/06/29 13:29:49;;;;;;;6.68;2.80;;;28.60;73.80;;;;;;5032535;28;20116;-72
2023/06/29 13:32:35;;;;;;;5.63;3.30;;;28.60;74.30;;;;;;5035206;28;20039;-72
2023/06/29 13:35:21;;;;;;;4.40;3.75;;;28.70;73.80;;;;;;5031540;28;20056;-72
2023/06/29 13:38:07;;;;;;;4.68;2.80;;;28.70;74.00;;;;;;5037664;28;20040;-72
2023/06/29 13:40:53;;;;;;;2.90;2.22;;;28.70;73.60;;;;;;5049105;28;20440;-72
2023/06/29 13:43:39;;;;;;;4.18;2.70;;;28.80;73.70;;;;;;5033454;28;20025;-72
2023/06/29 13:46:25;;;;;;;4.80;3.22;;;28.80;73.50;;;;;;5030922;28;20038;-72
2023/06/29 13:49:11;;;;;;;5.18;3.22;;;28.80;73.80;;;;;;5045067;28;20399;-72
2023/06/29 13:51:57;;;;;;;5.00;3.00;;;28.90;74.10;;;;;;5031494;28;20040;-72
2023/06/29 13:54:43;;;;;;;6.07;3.28;;;28.90;73.60;;;;;;5037452;28;20035;-71
2023/06/29 13:57:29;;;;;;;3.97;2.72;;;28.90;73.60;;;;;;5033899;28;20037;-72
2023/06/29 14:00:15;;;;;;;5.28;2.92;;;29.00;73.90;;;;;;5034504;28;20140;-72
2023/06/29 14:03:04;;;;;;;4.55;2.42;;;29.00;73.20;;;;;;5039559;28;20497;-71
2023/06/29 14:05:51;;;;;;;4.35;2.15;;;29.00;73.50;;;;;;5042562;28;20036;-68
2023/06/29 14:08:38;;;;;;;3.95;2.60;;;29.00;73.90;;;;;;5043728;28;20040;-70
2023/06/29 14:11:23;;;;;;;5.82;2.30;;;29.00;73.10;;;;;;5047683;28;20398;-69
2023/06/29 14:14:10;;;;;;;3.60;2.30;;;29.00;73.10;;;;;;5047013;28;20351;-69
2023/06/29 14:16:56;;;;;;;4.82;2.42;;;29.10;72.90;;;;;;5048618;28;20037;-69
2023/06/29 14:19:41;;;;;;;3.88;2.20;;;29.10;72.10;;;;;;5036227;28;20563;-69
2023/06/29 14:22:27;;;;;;;4.60;2.40;;;29.10;71.10;;;;;;5037978;28;20481;-69
2023/06/29 14:25:13;;;;;;;3.08;2.40;;;29.20;71.30;;;;;;5040821;28;20106;-69
2023/06/29 14:27:59;;;;;;;3.70;2.22;;;29.20;71.40;;;;;;5037166;28;20125;-69